createdAt,value
2018-07-19T00:02:21.733Z,2.67
2018-07-19T00:04:50.598Z,2.80
2018-07-19T00:07:19.408Z,2.97
2018-07-19T00:09:48.325Z,2.90
2018-07-19T00:12:26.912Z,2.53
2018-07-19T00:14:55.702Z,2.47
2018-07-19T00:17:24.484Z,2.70
2018-07-19T00:19:53.291Z,2.40
2018-07-19T00:22:22.056Z,2.37
2018-07-19T00:24:50.949Z,2.50
2018-07-19T00:27:19.777Z,2.50
2018-07-19T00:29:48.561Z,2.90
2018-07-19T00:32:17.480Z,2.83
2018-07-19T00:34:46.294Z,2.73
2018-07-19T00:37:15.136Z,3.03
2018-07-19T00:39:43.955Z,3.90
2018-07-19T00:42:12.809Z,2.80
2018-07-19T00:44:41.662Z,3.00
2018-07-19T00:47:10.457Z,2.97
2018-07-19T00:49:39.349Z,2.50
2018-07-19T00:52:08.125Z,3.17
2018-07-19T00:54:36.825Z,2.40
2018-07-19T00:57:05.970Z,2.50
2018-07-19T00:59:34.905Z,2.67
2018-07-19T01:02:03.684Z,2.93
2018-07-19T01:04:32.521Z,2.93
2018-07-19T01:07:01.285Z,2.67
2018-07-19T01:09:30.129Z,3.37
2018-07-19T01:11:58.870Z,2.80
2018-07-19T01:14:27.653Z,2.90
2018-07-19T01:16:56.421Z,3.00
2018-07-19T01:19:25.293Z,2.73
2018-07-19T01:21:54.103Z,2.80
2018-07-19T01:24:22.911Z,3.43
2018-07-19T01:26:51.729Z,2.70
2018-07-19T01:29:20.545Z,3.10
2018-07-19T01:31:49.333Z,3.30
2018-07-19T01:34:18.103Z,2.70
2018-07-19T01:36:46.948Z,2.63
2018-07-19T01:39:15.745Z,2.87
2018-07-19T01:42:23.089Z,2.60
2018-07-19T01:44:51.970Z,2.40
2018-07-19T01:47:20.732Z,2.90
2018-07-19T01:49:49.517Z,2.90
2018-07-19T01:52:18.285Z,2.80
2018-07-19T01:54:47.098Z,3.80
2018-07-19T01:57:16.834Z,2.77
2018-07-19T01:59:46.381Z,3.10
2018-07-19T02:02:15.293Z,2.73
2018-07-19T02:04:44.086Z,3.07
2018-07-19T02:07:12.889Z,3.33
2018-07-19T02:09:41.759Z,3.20
2018-07-19T02:12:10.577Z,3.40
2018-07-19T02:14:39.058Z,3.20
2018-07-19T02:17:07.961Z,3.00
2018-07-19T02:19:36.800Z,3.00
2018-07-19T02:22:05.597Z,3.30
2018-07-19T02:24:34.406Z,3.47
2018-07-19T02:27:03.197Z,3.20
2018-07-19T02:29:31.803Z,3.00
2018-07-19T02:32:00.521Z,3.17
2018-07-19T02:34:29.321Z,3.30
2018-07-19T02:36:58.125Z,3.23
2018-07-19T02:39:26.966Z,3.50
2018-07-19T02:41:55.761Z,3.10
2018-07-19T02:44:24.517Z,3.23
2018-07-19T02:46:59.808Z,3.00
2018-07-19T02:49:28.613Z,3.10
2018-07-19T02:51:57.452Z,3.23
2018-07-19T02:54:26.281Z,3.17
2018-07-19T02:56:55.053Z,3.40
2018-07-19T02:59:23.897Z,3.30
2018-07-19T03:01:52.689Z,3.60
2018-07-19T03:04:21.486Z,3.30
2018-07-19T03:06:50.220Z,3.27
2018-07-19T03:09:19.052Z,3.03
2018-07-19T03:11:47.909Z,3.50
2018-07-19T03:14:16.689Z,3.87
2018-07-19T03:16:45.504Z,3.43
2018-07-19T03:19:14.273Z,3.30
2018-07-19T03:21:43.182Z,3.40
2018-07-19T03:24:11.958Z,3.73
2018-07-19T03:26:40.935Z,3.70
2018-07-19T03:29:09.773Z,3.23
2018-07-19T03:31:38.525Z,3.27
2018-07-19T03:34:07.397Z,3.10
2018-07-19T03:36:36.200Z,3.30
2018-07-19T03:39:07.766Z,3.03
2018-07-19T03:41:36.609Z,2.80
2018-07-19T03:44:05.661Z,3.47
2018-07-19T03:46:34.533Z,2.87
2018-07-19T03:49:03.382Z,3.50
2018-07-19T03:51:32.153Z,3.40
2018-07-19T03:54:01.042Z,3.17
2018-07-19T03:56:29.793Z,3.27
2018-07-19T03:58:58.636Z,3.10
2018-07-19T04:01:27.452Z,3.43
2018-07-19T04:03:56.210Z,3.30
2018-07-19T04:06:24.986Z,3.03
2018-07-19T04:08:53.817Z,3.17
2018-07-19T04:11:22.572Z,3.27
2018-07-19T04:13:51.421Z,3.33
2018-07-19T04:16:20.266Z,3.30
2018-07-19T04:18:49.009Z,3.17
2018-07-19T04:21:17.576Z,3.10
2018-07-19T04:23:46.289Z,3.43
2018-07-19T04:26:15.053Z,3.10
2018-07-19T04:28:48.953Z,3.40
2018-07-19T04:31:17.725Z,3.40
2018-07-19T04:33:46.585Z,3.20
2018-07-19T04:36:15.377Z,2.73
2018-07-19T04:38:44.160Z,3.43
2018-07-19T04:41:13.049Z,3.60
2018-07-19T04:43:41.881Z,3.53
2018-07-19T04:46:10.676Z,3.67
2018-07-19T04:48:39.457Z,3.00
2018-07-19T04:51:08.291Z,3.13
2018-07-19T04:53:37.127Z,3.37
2018-07-19T04:56:05.961Z,3.37
2018-07-19T04:58:34.798Z,3.07
2018-07-19T05:01:03.555Z,3.03
2018-07-19T05:03:32.363Z,3.57
2018-07-19T05:06:01.173Z,3.13
2018-07-19T05:08:29.993Z,3.10
2018-07-19T05:10:58.810Z,2.93
2018-07-19T05:13:27.609Z,3.20
2018-07-19T05:15:56.456Z,3.50
2018-07-19T05:18:24.956Z,3.53
2018-07-19T05:20:53.789Z,3.10
2018-07-19T05:23:22.546Z,3.37
2018-07-19T05:25:51.398Z,3.23
2018-07-19T05:28:23.285Z,2.57
2018-07-19T05:30:52.077Z,3.30
2018-07-19T05:33:20.829Z,3.60
2018-07-19T05:35:49.661Z,3.10
2018-07-19T05:38:18.449Z,3.00
2018-07-19T05:40:47.348Z,3.07
2018-07-19T05:43:16.130Z,2.93
2018-07-19T05:45:44.961Z,3.13
2018-07-19T05:48:13.730Z,3.20
2018-07-19T05:50:43.685Z,3.30
2018-07-19T05:53:12.764Z,4.00
2018-07-19T05:55:41.617Z,2.90
2018-07-19T05:58:10.448Z,3.70
2018-07-19T06:00:39.150Z,3.60
2018-07-19T06:03:07.893Z,3.47
2018-07-19T06:05:36.709Z,3.67
2018-07-19T06:08:05.529Z,3.27
2018-07-19T06:10:34.469Z,3.27
2018-07-19T06:13:03.364Z,3.23
2018-07-19T06:15:32.118Z,2.73
2018-07-19T06:18:15.389Z,3.10
2018-07-19T06:20:48.252Z,3.10
2018-07-19T06:23:23.329Z,3.43
2018-07-19T06:25:52.772Z,3.03
2018-07-19T06:28:22.050Z,3.13
2018-07-19T06:30:50.853Z,3.00
2018-07-19T06:33:32.077Z,2.70
2018-07-19T06:36:00.909Z,2.80
2018-07-19T06:38:29.717Z,2.67
2018-07-19T06:40:58.516Z,2.50
2018-07-19T06:43:27.250Z,2.70
2018-07-19T06:45:55.972Z,2.67
2018-07-19T06:48:24.817Z,2.90
2018-07-19T06:50:53.656Z,2.37
2018-07-19T06:53:22.526Z,2.93
2018-07-19T06:58:42.564Z,2.47
2018-07-19T07:01:11.281Z,2.57
2018-07-19T07:03:40.271Z,1.90
2018-07-19T07:06:09.097Z,2.30
2018-07-19T07:08:37.938Z,2.30
2018-07-19T07:11:06.676Z,1.90
2018-07-19T07:13:35.441Z,2.40
2018-07-19T07:16:04.333Z,2.37
2018-07-19T07:18:33.080Z,2.40
2018-07-19T07:21:01.846Z,2.57
2018-07-19T07:23:30.593Z,2.50
2018-07-19T07:25:59.477Z,2.50
2018-07-19T07:28:28.254Z,2.67
2018-07-19T07:34:00.539Z,3.03
2018-07-19T07:36:40.237Z,2.23
2018-07-19T07:39:10.178Z,2.60
2018-07-19T07:41:39.119Z,2.13
2018-07-19T07:44:08.061Z,2.27
2018-07-19T07:46:36.705Z,2.10
2018-07-19T07:49:05.786Z,1.70
2018-07-19T07:51:34.521Z,1.77
2018-07-19T07:54:03.361Z,2.00
2018-07-19T07:56:32.106Z,3.20
2018-07-19T07:59:00.836Z,2.60
2018-07-19T08:01:31.562Z,2.10
2018-07-19T08:04:00.293Z,2.10
2018-07-19T08:06:29.109Z,1.70
2018-07-19T08:08:58.080Z,1.37
2018-07-19T08:11:26.817Z,1.70
2018-07-19T08:14:00.545Z,1.47
2018-07-19T08:16:29.349Z,2.13
2018-07-19T08:19:00.149Z,1.70
2018-07-19T08:21:29.891Z,2.30
2018-07-19T08:23:58.853Z,2.23
2018-07-19T08:26:27.737Z,1.93
2018-07-19T08:28:56.934Z,1.90
2018-07-19T08:31:25.817Z,2.00
2018-07-19T08:33:58.903Z,1.83
2018-07-19T08:36:27.741Z,1.80
2018-07-19T08:38:56.477Z,2.10
2018-07-19T08:41:35.962Z,2.40
2018-07-19T08:44:04.773Z,1.93
2018-07-19T08:46:33.601Z,2.00
2018-07-19T08:49:02.604Z,1.87
2018-07-19T08:51:31.477Z,1.80
2018-07-19T08:54:13.845Z,2.20
2018-07-19T08:56:42.723Z,1.90
2018-07-19T08:59:11.391Z,1.80
2018-07-19T09:01:40.613Z,2.20
2018-07-19T09:04:09.529Z,2.33
2018-07-19T09:06:38.321Z,1.90
2018-07-19T09:09:08.561Z,2.23
2018-07-19T09:11:41.517Z,2.33
2018-07-19T09:14:10.369Z,1.83
2018-07-19T09:16:39.117Z,2.03
2018-07-19T09:19:07.863Z,1.63
2018-07-19T09:21:36.701Z,2.10
2018-07-19T09:24:05.583Z,2.10
2018-07-19T09:26:34.372Z,1.80
2018-07-19T09:29:03.177Z,2.07
2018-07-19T09:31:32.005Z,2.00
2018-07-19T09:34:00.789Z,2.53
2018-07-19T09:36:29.681Z,2.23
2018-07-19T09:38:58.521Z,2.20
2018-07-19T09:41:27.298Z,1.70
2018-07-19T09:43:56.109Z,2.30
2018-07-19T09:46:24.585Z,2.03
2018-07-19T09:48:53.355Z,2.17
2018-07-19T09:51:22.131Z,2.40
2018-07-19T09:56:47.634Z,2.40
2018-07-19T09:59:16.686Z,1.97
2018-07-19T10:01:45.523Z,2.00
2018-07-19T10:04:14.242Z,2.00
2018-07-19T10:06:43.106Z,1.73
2018-07-19T10:09:11.896Z,2.23
2018-07-19T10:11:40.685Z,2.83
2018-07-19T10:14:09.493Z,2.37
2018-07-19T10:16:38.262Z,2.50
2018-07-19T10:19:20.461Z,2.17
2018-07-19T10:21:49.216Z,2.40
2018-07-19T10:24:18.306Z,2.00
2018-07-19T10:26:46.958Z,1.97
2018-07-19T10:29:15.692Z,2.00
2018-07-19T10:31:44.803Z,2.23
2018-07-19T10:34:13.612Z,1.90
2018-07-19T10:36:42.300Z,1.73
2018-07-19T10:39:11.190Z,2.13
2018-07-19T10:41:39.958Z,2.20
2018-07-19T10:44:08.864Z,2.00
2018-07-19T10:46:38.917Z,1.93
2018-07-19T10:49:07.679Z,2.10
2018-07-19T10:51:36.693Z,1.80
2018-07-19T10:54:05.534Z,2.07
2018-07-19T10:56:34.356Z,2.00
2018-07-19T10:59:03.233Z,1.90
2018-07-19T11:01:32.236Z,2.10
2018-07-19T11:04:01.065Z,2.20
2018-07-19T11:06:29.994Z,2.10
2018-07-19T11:08:58.714Z,1.77
2018-07-19T11:11:27.569Z,2.10
2018-07-19T11:13:57.427Z,1.80
2018-07-19T11:16:26.241Z,2.13
2018-07-19T11:18:55.077Z,1.87
2018-07-19T11:21:24.101Z,2.27
2018-07-19T11:23:52.918Z,2.03
2018-07-19T11:26:21.769Z,2.20
2018-07-19T11:28:50.694Z,2.30
2018-07-19T11:31:19.472Z,3.23
2018-07-19T11:33:52.330Z,2.17
2018-07-19T11:36:21.057Z,2.10
2018-07-19T11:38:59.451Z,2.53
2018-07-19T11:41:28.173Z,2.30
2018-07-19T11:43:56.916Z,2.10
2018-07-19T11:46:25.784Z,2.50
2018-07-19T11:48:54.662Z,2.30
2018-07-19T11:54:14.562Z,2.53
2018-07-19T11:56:43.333Z,2.13
2018-07-19T11:59:12.174Z,1.93
2018-07-19T12:01:47.762Z,2.10
2018-07-19T12:04:16.490Z,2.23
2018-07-19T12:06:45.332Z,2.10
2018-07-19T12:09:18.197Z,2.40
2018-07-19T12:11:47.090Z,2.53
2018-07-19T12:14:15.961Z,2.13
2018-07-19T12:16:44.717Z,2.13
2018-07-19T12:19:13.601Z,1.87
2018-07-19T12:21:42.432Z,2.10
2018-07-19T12:24:11.258Z,2.70
2018-07-19T12:26:40.077Z,2.23
2018-07-19T12:29:09.941Z,2.30
2018-07-19T12:31:47.889Z,5.13
2018-07-19T12:34:16.670Z,2.70
2018-07-19T12:37:00.868Z,2.27
2018-07-19T12:39:29.901Z,2.20
2018-07-19T12:42:00.093Z,2.33
2018-07-19T12:44:29.005Z,2.20
2018-07-19T12:46:57.853Z,2.00
2018-07-19T12:55:12.013Z,2.20
2018-07-19T12:57:40.964Z,2.20
2018-07-19T13:00:09.766Z,1.97
2018-07-19T13:02:45.225Z,2.30
2018-07-19T13:05:14.149Z,1.90
2018-07-19T13:07:42.941Z,2.27
2018-07-19T13:10:17.012Z,2.30
2018-07-19T13:12:45.814Z,2.07
2018-07-19T13:15:14.863Z,1.87
2018-07-19T13:17:43.551Z,2.00
2018-07-19T13:20:12.347Z,2.10
2018-07-19T13:22:41.139Z,2.20
2018-07-19T13:25:09.975Z,2.43
2018-07-19T13:27:38.903Z,2.33
2018-07-19T13:30:07.647Z,2.37
2018-07-19T13:32:36.525Z,3.40
2018-07-19T13:35:05.490Z,2.30
2018-07-19T13:37:34.290Z,2.10
2018-07-19T13:40:03.114Z,2.20
2018-07-19T13:42:31.988Z,2.50
2018-07-19T13:45:00.749Z,2.20
2018-07-19T13:47:29.586Z,2.20
2018-07-19T13:49:58.473Z,2.17
2018-07-19T13:52:39.192Z,2.37
2018-07-19T13:55:07.918Z,2.13
2018-07-19T13:57:36.717Z,2.23
2018-07-19T14:00:05.577Z,2.23
2018-07-19T14:02:34.417Z,2.77
2018-07-19T14:05:02.945Z,2.67
2018-07-19T14:07:31.658Z,2.10
2018-07-19T14:10:00.481Z,2.20
2018-07-19T14:12:29.277Z,2.10
2018-07-19T14:14:58.114Z,2.07
2018-07-19T14:17:26.837Z,2.27
2018-07-19T14:19:59.681Z,2.27
2018-07-19T14:22:28.409Z,2.90
2018-07-19T14:24:57.242Z,2.57
2018-07-19T14:27:35.269Z,2.27
2018-07-19T14:30:04.845Z,2.50
2018-07-19T14:32:33.597Z,2.27
2018-07-19T14:35:02.466Z,2.30
2018-07-19T14:37:31.265Z,3.13
2018-07-19T14:40:00.070Z,2.10
2018-07-19T14:42:32.054Z,2.40
2018-07-19T14:45:00.825Z,2.50
2018-07-19T14:47:29.617Z,2.60
2018-07-19T14:49:58.545Z,2.13
2018-07-19T14:52:27.296Z,2.27
2018-07-19T14:54:56.149Z,2.40
2018-07-19T14:57:25.030Z,2.70
2018-07-19T14:59:53.840Z,2.33
2018-07-19T15:02:22.817Z,2.53
2018-07-19T15:04:51.594Z,2.90
2018-07-19T15:07:20.359Z,2.30
2018-07-19T15:09:50.217Z,2.30
2018-07-19T15:12:19.070Z,2.67
2018-07-19T15:14:54.769Z,2.40
2018-07-19T15:17:23.533Z,2.17
2018-07-19T15:19:52.413Z,2.30
2018-07-19T15:22:25.208Z,2.20
2018-07-19T15:24:53.978Z,2.57
2018-07-19T15:27:29.538Z,2.27
2018-07-19T15:29:58.281Z,2.97
2018-07-19T15:32:39.817Z,2.60
2018-07-19T15:35:08.699Z,2.60
2018-07-19T15:37:38.456Z,2.60
2018-07-19T15:40:16.242Z,2.13
2018-07-19T15:42:45.059Z,2.30
2018-07-19T15:45:13.909Z,2.20
2018-07-19T15:47:42.714Z,2.23
2018-07-19T15:50:11.600Z,2.60
2018-07-19T15:52:40.441Z,2.23
2018-07-19T15:55:09.284Z,2.33
2018-07-19T15:57:38.023Z,2.50
2018-07-19T16:00:06.962Z,2.20
2018-07-19T16:02:37.817Z,2.50
2018-07-19T16:05:06.664Z,2.27
2018-07-19T16:07:51.216Z,2.20
2018-07-19T16:10:19.962Z,2.20
2018-07-19T16:12:52.757Z,2.30
2018-07-19T16:15:21.538Z,2.73
2018-07-19T16:17:50.276Z,2.12
2018-07-19T16:20:18.810Z,2.33
2018-07-19T16:22:48.610Z,2.60
2018-07-19T16:25:22.437Z,2.62
2018-07-19T16:27:51.277Z,2.33
2018-07-19T16:30:24.163Z,2.22
2018-07-19T16:32:57.094Z,2.27
2018-07-19T16:35:25.862Z,2.35
2018-07-19T16:37:56.718Z,2.80
2018-07-19T16:40:25.592Z,2.40
2018-07-19T16:42:54.471Z,2.67
2018-07-19T16:45:23.189Z,2.20
2018-07-19T16:47:52.298Z,2.40
2018-07-19T16:50:21.229Z,2.42
2018-07-19T16:52:50.029Z,2.70
2018-07-19T16:55:19.041Z,2.35
2018-07-19T16:57:47.817Z,2.67
2018-07-19T17:00:16.602Z,2.62
2018-07-19T17:02:45.397Z,2.40
2018-07-19T17:05:14.145Z,2.45
2018-07-19T17:07:42.886Z,2.42
2018-07-19T17:10:11.718Z,2.60
2018-07-19T17:12:40.701Z,2.65
2018-07-19T17:15:09.522Z,2.45
2018-07-19T17:17:38.301Z,2.45
2018-07-19T17:20:07.082Z,2.10
2018-07-19T17:22:36.105Z,2.33
2018-07-19T17:25:04.961Z,2.15
2018-07-19T17:27:33.761Z,2.37
2018-07-19T17:30:02.580Z,2.20
2018-07-19T17:32:33.356Z,2.50
2018-07-19T17:35:02.141Z,2.60
2018-07-19T17:37:30.849Z,2.40
2018-07-19T17:40:12.406Z,2.67
2018-07-19T17:42:41.281Z,2.30
2018-07-19T17:45:10.086Z,2.42
2018-07-19T17:47:39.000Z,2.47
2018-07-19T17:50:15.509Z,2.40
2018-07-19T17:52:44.290Z,2.47
2018-07-19T17:55:13.075Z,2.50
2018-07-19T17:57:41.925Z,2.70
2018-07-19T18:00:10.857Z,2.20
2018-07-19T18:02:39.661Z,2.40
2018-07-19T18:05:08.409Z,2.22
2018-07-19T18:07:37.182Z,2.40
2018-07-19T18:10:05.761Z,2.20
2018-07-19T18:12:34.442Z,2.05
2018-07-19T18:15:03.269Z,2.02
2018-07-19T18:17:32.041Z,2.10
2018-07-19T18:20:00.829Z,2.27
2018-07-19T18:22:29.562Z,2.10
2018-07-19T18:24:58.419Z,2.10
2018-07-19T18:27:27.289Z,2.20
2018-07-19T18:29:56.045Z,2.53
2018-07-19T18:32:24.882Z,2.13
2018-07-19T18:34:53.605Z,2.03
2018-07-19T18:37:22.412Z,1.80
2018-07-19T18:39:51.217Z,2.00
2018-07-19T18:42:20.013Z,2.20
2018-07-19T18:44:48.772Z,2.20
2018-07-19T18:47:17.645Z,2.13
2018-07-19T18:49:46.501Z,2.20
2018-07-19T18:52:15.209Z,2.13
2018-07-19T18:54:43.950Z,2.17
2018-07-19T18:57:12.552Z,2.20
2018-07-19T18:59:41.371Z,2.20
2018-07-19T19:02:10.190Z,2.10
2018-07-19T19:04:42.395Z,1.90
2018-07-19T19:07:11.116Z,2.20
2018-07-19T19:09:39.972Z,2.00
2018-07-19T19:12:08.541Z,1.83
2018-07-19T19:14:37.274Z,2.40
2018-07-19T19:17:06.161Z,2.03
2018-07-19T19:19:38.114Z,1.93
2018-07-19T19:22:06.946Z,2.30
2018-07-19T19:24:36.729Z,2.33
2018-07-19T19:27:05.620Z,2.17
2018-07-19T19:29:34.422Z,2.13
2018-07-19T19:32:09.546Z,2.00
2018-07-19T19:34:38.390Z,2.37
2018-07-19T19:37:06.948Z,2.20
2018-07-19T19:39:35.637Z,2.77
2018-07-19T19:42:04.496Z,2.23
2018-07-19T19:44:33.304Z,2.17
2018-07-19T19:47:02.070Z,2.20
2018-07-19T19:49:42.373Z,4.00
2018-07-19T19:52:11.110Z,2.57
2018-07-19T19:54:39.969Z,2.60
2018-07-19T19:57:08.672Z,2.60
2018-07-19T19:59:37.541Z,2.53
2018-07-19T20:02:08.212Z,2.50
2018-07-19T20:04:37.050Z,2.20
2018-07-19T20:07:05.937Z,2.10
2018-07-19T20:09:34.693Z,2.13
2018-07-19T20:12:03.534Z,1.80
2018-07-19T20:14:33.378Z,2.10
2018-07-19T20:17:04.271Z,2.40
2018-07-19T20:19:33.058Z,2.20
2018-07-19T20:22:03.817Z,2.20
2018-07-19T20:24:32.507Z,2.47
2018-07-19T20:27:01.294Z,2.37
2018-07-19T20:29:30.319Z,1.87
2018-07-19T20:31:59.053Z,1.83
2018-07-19T20:34:28.010Z,2.17
2018-07-19T20:36:56.722Z,2.17
2018-07-19T20:39:25.609Z,2.27
2018-07-19T20:41:58.382Z,2.10
2018-07-19T20:44:27.226Z,2.40
2018-07-19T20:46:55.954Z,2.30
2018-07-19T20:49:24.758Z,2.30
2018-07-19T20:51:53.654Z,2.43
2018-07-19T20:54:28.185Z,2.40
2018-07-19T20:56:56.921Z,2.47
2018-07-19T20:59:26.858Z,2.40
2018-07-19T21:01:55.719Z,2.30
2018-07-19T21:04:24.549Z,2.30
2018-07-19T21:06:53.449Z,2.37
2018-07-19T21:09:22.462Z,2.70
2018-07-19T21:11:51.324Z,2.00
2018-07-19T21:14:20.198Z,2.67
2018-07-19T21:16:49.164Z,2.30
2018-07-19T21:19:18.133Z,2.53
2018-07-19T21:21:46.989Z,2.30
2018-07-19T21:24:15.823Z,2.33
2018-07-19T21:26:44.661Z,2.50
2018-07-19T21:29:23.164Z,2.17
2018-07-19T21:31:52.013Z,2.20
2018-07-19T21:34:20.847Z,2.10
2018-07-19T21:36:49.713Z,2.33
2018-07-19T21:39:18.515Z,2.10
2018-07-19T21:41:47.326Z,2.20
2018-07-19T21:44:16.264Z,2.30
2018-07-19T21:49:36.406Z,2.13
2018-07-19T21:52:05.405Z,2.10
2018-07-19T21:54:54.573Z,2.20
2018-07-19T21:57:23.689Z,2.10
2018-07-19T21:59:52.521Z,2.40
2018-07-19T22:02:21.321Z,2.30
2018-07-19T22:04:51.042Z,2.40
2018-07-19T22:07:19.949Z,2.67
2018-07-19T22:09:48.665Z,2.37
2018-07-19T22:12:18.349Z,2.10
2018-07-19T22:14:47.153Z,2.60
2018-07-19T22:17:15.918Z,2.33
2018-07-19T22:19:44.699Z,2.40
2018-07-19T22:22:13.497Z,2.57
2018-07-19T22:24:42.301Z,2.50
2018-07-19T22:27:11.145Z,2.17
2018-07-19T22:29:40.094Z,2.10
2018-07-19T22:32:08.997Z,2.33
2018-07-19T22:34:37.811Z,2.37
2018-07-19T22:37:06.562Z,2.30
2018-07-19T22:39:35.321Z,2.53
2018-07-19T22:42:04.170Z,2.40
2018-07-19T22:44:32.953Z,2.50
2018-07-19T22:47:01.741Z,2.30
2018-07-19T22:49:30.653Z,2.87
2018-07-19T22:51:59.448Z,2.70
2018-07-19T22:54:28.265Z,2.50
2018-07-19T22:56:57.105Z,2.33
2018-07-19T22:59:25.925Z,2.63
2018-07-19T23:02:02.350Z,2.87
2018-07-19T23:04:31.270Z,2.77
2018-07-19T23:09:57.297Z,2.10
2018-07-19T23:12:26.122Z,2.70
2018-07-19T23:14:54.939Z,2.57
2018-07-19T23:17:24.845Z,2.23
2018-07-19T23:19:53.660Z,2.67
2018-07-19T23:22:26.994Z,2.77
2018-07-19T23:24:55.820Z,2.50
2018-07-19T23:27:24.641Z,2.33
2018-07-19T23:29:58.554Z,2.60
2018-07-19T23:32:27.358Z,2.60
2018-07-19T23:34:56.217Z,3.00
2018-07-19T23:43:19.385Z,2.70
2018-07-19T23:46:05.230Z,2.70
2018-07-19T23:48:34.011Z,2.73
2018-07-19T23:51:02.901Z,2.70
2018-07-19T23:53:31.621Z,2.17
2018-07-19T23:56:00.473Z,2.70
2018-07-19T23:58:31.397Z,2.50
